San Francisco, California
Traffic Map
Current Weather Conditions
San Francisco, California
Scattered Clouds
Scattered Clouds
70°
Feels Like: 70°
Wind Chill: 70° Ceiling: Unl
Heat Index: 70° Visibility: 10mi
Dew Point: 59° Wind: 13mph
Humidity: 68% Direction: 270° (W)
Pressure: 30in Gusts: 0mph
Raw Report DataKSFO 300056Z 27011KT 10SM FEW010 SCT036 SCT200 21/15 A3000 RMK AO2 SLP158 T02110150 $
Traffic Incident Summary
Active as of:
Severity:
Category:
InformationThere was an issue retrieving the traffic information for this location. Please try a different location or try again shortly.
Advertisements
Track Severe Weather on mobile